Time;durP1;ratioP1;P1;durP2;ratioP2;P2;SDS_P1;SDS_P2;PMS_P1;PMS_P2;Temp;Humidity;BMP_temperature;BMP_pressure;BME280_temperature;BME280_humidity;BME280_pressure;Samples;Min_cycle;Max_cycle;Signal;HPM_P1;HPM_P2
2022/07/25 00:00:09;;;;;;;;;;;27.80;49.10;;;;;;5020534;28;19940;-73
2022/07/25 00:02:36;;;;;;;;;;;27.80;49.20;;;;;;5018227;28;20683;-72
2022/07/25 00:05:03;;;;;;;;;;;27.70;49.30;;;;;;5019560;28;19977;-75
2022/07/25 00:07:30;;;;;;;;;;;27.70;49.40;;;;;;5016941;28;19933;-73
2022/07/25 00:09:57;;;;;;;;;;;27.70;49.50;;;;;;5017253;28;19930;-71
2022/07/25 00:12:23;;;;;;;;;;;27.60;49.60;;;;;;5018336;28;19925;-71
2022/07/25 00:14:50;;;;;;;;;;;27.60;49.70;;;;;;5019604;28;19933;-72
2022/07/25 00:17:18;;;;;;;;;;;27.50;49.80;;;;;;5018834;28;19945;-74
2022/07/25 00:19:44;;;;;;;;;;;27.50;49.90;;;;;;5021462;28;19936;-74
2022/07/25 00:22:11;;;;;;;;;;;27.50;50.00;;;;;;5016478;28;19929;-72
2022/07/25 00:24:37;;;;;;;;;;;27.40;50.10;;;;;;5016824;28;19936;-73
2022/07/25 00:27:04;;;;;;;;;;;27.40;50.20;;;;;;5019310;28;19933;-71
2022/07/25 00:29:31;;;;;;;;;;;27.30;50.30;;;;;;5017895;28;19933;-72
2022/07/25 00:31:57;;;;;;;;;;;27.30;50.40;;;;;;5019274;28;19929;-73
2022/07/25 00:34:25;;;;;;;;;;;27.30;50.40;;;;;;5019982;28;19933;-73
2022/07/25 00:36:52;;;;;;;;;;;27.30;50.50;;;;;;5019849;28;19929;-74
2022/07/25 00:39:18;;;;;;;;;;;27.20;50.40;;;;;;5015630;28;20333;-73
2022/07/25 00:41:45;;;;;;;;;;;27.20;50.50;;;;;;5020181;28;19929;-71
2022/07/25 00:44:21;;;;;;;;;;;27.10;50.60;;;;;;5019874;28;20767;-75
2022/07/25 00:46:47;;;;;;;;;;;27.10;50.70;;;;;;5016866;28;20712;-72
2022/07/25 00:49:14;;;;;;;;;;;27.10;50.80;;;;;;5017545;28;20402;-73
2022/07/25 00:51:42;;;;;;;;;;;27.00;50.80;;;;;;5018739;28;19940;-72
2022/07/25 00:54:09;;;;;;;;;;;27.00;50.90;;;;;;5015648;28;20376;-72
2022/07/25 00:56:36;;;;;;;;;;;27.00;51.00;;;;;;5017947;28;19929;-72
2022/07/25 00:59:03;;;;;;;;;;;26.90;51.10;;;;;;5018772;28;19957;-73
2022/07/25 01:01:30;;;;;;;;;;;26.80;51.20;;;;;;5018494;28;19933;-71
2022/07/25 01:03:56;;;;;;;;;;;26.90;51.30;;;;;;5018270;28;19929;-71
2022/07/25 01:06:23;;;;;;;;;;;26.80;51.40;;;;;;5019488;28;19929;-72
2022/07/25 01:08:51;;;;;;;;;;;26.80;51.50;;;;;;5016462;28;19929;-71
2022/07/25 01:11:17;;;;;;;;;;;26.70;51.60;;;;;;5017824;28;19949;-71
2022/07/25 01:13:44;;;;;;;;;;;26.70;51.60;;;;;;5019288;28;19944;-73
2022/07/25 01:16:10;;;;;;;;;;;26.70;51.70;;;;;;5015122;28;19933;-72
2022/07/25 01:18:37;;;;;;;;;;;26.60;51.80;;;;;;5018500;28;19929;-74
2022/07/25 01:21:05;;;;;;;;;;;26.60;51.90;;;;;;5015477;28;19933;-71
2022/07/25 01:23:32;;;;;;;;;;;26.60;52.00;;;;;;5016970;28;19929;-72
2022/07/25 01:25:58;;;;;;;;;;;26.50;52.00;;;;;;5016238;28;19929;-70
2022/07/25 01:28:25;;;;;;;;;;;26.50;52.20;;;;;;5019625;28;19929;-73
2022/07/25 01:30:51;;;;;;;;;;;26.40;52.20;;;;;;5016910;28;19936;-71
2022/07/25 01:33:19;;;;;;;;;;;26.40;52.30;;;;;;5015037;28;20312;-71
2022/07/25 01:35:46;;;;;;;;;;;26.40;52.30;;;;;;5019944;28;19940;-71
2022/07/25 01:38:14;;;;;;;;;;;26.40;52.40;;;;;;5021759;28;19937;-71
2022/07/25 01:40:41;;;;;;;;;;;26.40;52.40;;;;;;5021691;28;19933;-75
2022/07/25 01:43:07;;;;;;;;;;;26.30;52.50;;;;;;5017695;28;20729;-73
2022/07/25 01:45:34;;;;;;;;;;;26.30;52.70;;;;;;5012587;28;20324;-72
2022/07/25 01:48:03;;;;;;;;;;;26.20;52.70;;;;;;5020210;28;21286;-72
2022/07/25 01:50:29;;;;;;;;;;;26.20;52.80;;;;;;5021338;28;19936;-76
2022/07/25 01:52:56;;;;;;;;;;;26.20;52.90;;;;;;5022875;28;19933;-71
2022/07/25 01:55:24;;;;;;;;;;;26.10;52.80;;;;;;5021599;28;19933;-71
2022/07/25 01:57:51;;;;;;;;;;;26.10;53.00;;;;;;5018500;28;20305;-74
2022/07/25 02:00:18;;;;;;;;;;;26.10;53.10;;;;;;5021008;28;19941;-73
2022/07/25 02:02:45;;;;;;;;;;;26.10;53.30;;;;;;5018720;28;20317;-72
2022/07/25 02:05:12;;;;;;;;;;;26.10;53.20;;;;;;5023691;28;19940;-76
2022/07/25 02:07:39;;;;;;;;;;;26.00;53.30;;;;;;5018312;28;19933;-71
2022/07/25 02:10:06;;;;;;;;;;;26.00;53.50;;;;;;5019928;28;20563;-73
2022/07/25 02:12:34;;;;;;;;;;;26.00;53.40;;;;;;5020674;28;20375;-72
2022/07/25 02:15:01;;;;;;;;;;;25.90;53.40;;;;;;5022512;28;19933;-71
2022/07/25 02:17:28;;;;;;;;;;;25.90;53.60;;;;;;5019616;28;19932;-73
2022/07/25 02:19:54;;;;;;;;;;;25.90;53.70;;;;;;5021093;28;19933;-70
2022/07/25 02:22:21;;;;;;;;;;;25.80;53.70;;;;;;5018985;28;19933;-71
2022/07/25 02:24:47;;;;;;;;;;;25.80;53.70;;;;;;5018108;28;19934;-71
2022/07/25 02:27:14;;;;;;;;;;;25.80;53.80;;;;;;5020504;28;19933;-74
2022/07/25 02:29:42;;;;;;;;;;;25.80;53.90;;;;;;5019813;28;20226;-73
2022/07/25 02:32:08;;;;;;;;;;;25.70;53.90;;;;;;5017180;28;19929;-71
2022/07/25 02:34:35;;;;;;;;;;;25.70;54.00;;;;;;5021262;28;20378;-75
2022/07/25 02:37:01;;;;;;;;;;;25.70;54.10;;;;;;5021565;28;20373;-71
2022/07/25 02:39:28;;;;;;;;;;;25.70;54.10;;;;;;5017393;28;19960;-72
2022/07/25 02:41:54;;;;;;;;;;;25.60;54.10;;;;;;5020680;28;19936;-72
2022/07/25 02:44:21;;;;;;;;;;;25.60;54.30;;;;;;5020796;28;20645;-71
2022/07/25 02:46:49;;;;;;;;;;;25.50;54.20;;;;;;5019183;28;20373;-72
2022/07/25 02:49:15;;;;;;;;;;;25.50;54.30;;;;;;5016760;28;19933;-73
2022/07/25 02:51:42;;;;;;;;;;;25.50;54.40;;;;;;5019326;28;19937;-73
2022/07/25 02:54:09;;;;;;;;;;;25.50;54.40;;;;;;5019073;28;19968;-71
2022/07/25 02:56:35;;;;;;;;;;;25.40;54.60;;;;;;5018918;28;19952;-73
2022/07/25 02:59:02;;;;;;;;;;;25.40;54.50;;;;;;5018191;28;20432;-72
2022/07/25 03:01:29;;;;;;;;;;;25.40;54.60;;;;;;5021966;28;20420;-72
2022/07/25 03:03:56;;;;;;;;;;;25.30;54.70;;;;;;5019960;28;19929;-74
2022/07/25 03:06:23;;;;;;;;;;;25.30;54.80;;;;;;5016213;28;19929;-72
2022/07/25 03:08:50;;;;;;;;;;;25.30;54.70;;;;;;5016686;28;20696;-70
2022/07/25 03:11:16;;;;;;;;;;;25.30;54.80;;;;;;5021008;28;20285;-74
2022/07/25 03:13:43;;;;;;;;;;;25.30;54.90;;;;;;5018647;28;19933;-71
2022/07/25 03:16:09;;;;;;;;;;;25.20;55.00;;;;;;5018989;28;19936;-73
2022/07/25 03:18:36;;;;;;;;;;;25.20;55.10;;;;;;5018330;28;19975;-72
2022/07/25 03:21:04;;;;;;;;;;;25.20;55.20;;;;;;5017200;28;19936;-70
2022/07/25 03:23:31;;;;;;;;;;;25.20;55.30;;;;;;5015808;28;20207;-75
2022/07/25 03:25:58;;;;;;;;;;;25.10;55.20;;;;;;5017799;28;19929;-72
2022/07/25 03:28:25;;;;;;;;;;;25.10;55.30;;;;;;5019681;28;20031;-72
2022/07/25 03:30:52;;;;;;;;;;;25.10;55.30;;;;;;5017064;28;19929;-72
2022/07/25 03:33:18;;;;;;;;;;;25.10;55.30;;;;;;5017249;28;19928;-74
2022/07/25 03:35:45;;;;;;;;;;;25.10;55.60;;;;;;5020178;28;19929;-75
2022/07/25 03:38:13;;;;;;;;;;;25.00;55.60;;;;;;5016882;28;19933;-75
2022/07/25 03:40:39;;;;;;;;;;;25.00;55.50;;;;;;5019714;28;20048;-72
2022/07/25 03:43:06;;;;;;;;;;;25.00;55.50;;;;;;5020778;28;19929;-71
2022/07/25 03:45:32;;;;;;;;;;;24.90;55.60;;;;;;5019324;28;19933;-71
2022/07/25 03:47:59;;;;;;;;;;;25.00;55.70;;;;;;5020346;28;19940;-70
2022/07/25 03:50:25;;;;;;;;;;;24.90;55.70;;;;;;5020918;28;19929;-73
2022/07/25 03:52:52;;;;;;;;;;;24.90;55.80;;;;;;5021109;28;20381;-71
2022/07/25 03:55:20;;;;;;;;;;;24.90;56.00;;;;;;5019845;28;19929;-71
2022/07/25 03:57:46;;;;;;;;;;;24.80;56.00;;;;;;5020066;28;19956;-74
2022/07/25 04:00:13;;;;;;;;;;;24.80;56.00;;;;;;5019837;28;19951;-72
2022/07/25 04:02:40;;;;;;;;;;;24.70;56.00;;;;;;5013624;28;20610;-72
2022/07/25 04:05:07;;;;;;;;;;;24.80;56.10;;;;;;5019450;28;19925;-73
2022/07/25 04:07:33;;;;;;;;;;;24.70;56.10;;;;;;5017248;28;19937;-71
2022/07/25 04:10:00;;;;;;;;;;;24.70;56.20;;;;;;5019011;28;19936;-71
2022/07/25 04:12:28;;;;;;;;;;;24.70;56.20;;;;;;5017202;28;19928;-72
2022/07/25 04:14:54;;;;;;;;;;;24.70;56.20;;;;;;5017131;28;19933;-75
2022/07/25 04:17:21;;;;;;;;;;;24.60;56.40;;;;;;5017019;28;19990;-74
2022/07/25 04:19:48;;;;;;;;;;;24.60;56.40;;;;;;5018533;28;19941;-71
2022/07/25 04:22:14;;;;;;;;;;;24.60;56.40;;;;;;5016802;28;19940;-71
2022/07/25 04:24:41;;;;;;;;;;;24.60;56.50;;;;;;5012501;28;19936;-71
2022/07/25 04:27:07;;;;;;;;;;;24.60;56.60;;;;;;5015084;28;20535;-74
2022/07/25 04:29:35;;;;;;;;;;;24.50;56.50;;;;;;5017929;28;19929;-70
2022/07/25 04:32:02;;;;;;;;;;;24.50;56.60;;;;;;5017889;28;19940;-72
2022/07/25 04:34:28;;;;;;;;;;;24.50;56.80;;;;;;5018956;28;19936;-74
2022/07/25 04:36:55;;;;;;;;;;;24.50;56.80;;;;;;5018335;28;19936;-72
2022/07/25 04:39:21;;;;;;;;;;;24.40;56.80;;;;;;5017428;28;20175;-71
2022/07/25 04:41:48;;;;;;;;;;;24.40;56.90;;;;;;5014562;28;19929;-73
2022/07/25 04:44:14;;;;;;;;;;;24.40;57.00;;;;;;5021939;28;20560;-70
2022/07/25 04:46:42;;;;;;;;;;;24.40;57.00;;;;;;5020624;28;20353;-74
2022/07/25 04:49:09;;;;;;;;;;;24.30;57.00;;;;;;5016792;28;19929;-71
2022/07/25 04:51:35;;;;;;;;;;;24.30;57.00;;;;;;5015930;28;19929;-73
2022/07/25 04:54:02;;;;;;;;;;;24.30;57.10;;;;;;5018303;28;20646;-72
2022/07/25 04:56:29;;;;;;;;;;;24.30;57.10;;;;;;5018582;28;19933;-72
2022/07/25 04:58:55;;;;;;;;;;;24.30;57.20;;;;;;5016752;28;19929;-71
2022/07/25 05:01:22;;;;;;;;;;;24.30;57.30;;;;;;5013593;28;19929;-74
2022/07/25 05:03:50;;;;;;;;;;;24.20;57.30;;;;;;5015318;28;20532;-71
2022/07/25 05:06:16;;;;;;;;;;;24.20;57.20;;;;;;5014995;28;20409;-74
2022/07/25 05:08:43;;;;;;;;;;;24.20;57.40;;;;;;5014756;28;19929;-72
2022/07/25 05:11:09;;;;;;;;;;;24.20;57.40;;;;;;5015050;28;19929;-71
2022/07/25 05:13:36;;;;;;;;;;;24.20;57.50;;;;;;5018926;28;19933;-72
2022/07/25 05:16:03;;;;;;;;;;;24.20;57.60;;;;;;5014337;28;21663;-76
2022/07/25 05:18:29;;;;;;;;;;;24.10;57.60;;;;;;5012843;28;19929;-71
2022/07/25 05:20:57;;;;;;;;;;;24.10;59.10;;;;;;5021756;28;19936;-71
2022/07/25 05:23:24;;;;;;;;;;;24.00;59.30;;;;;;5020471;28;19929;-71
2022/07/25 05:25:50;;;;;;;;;;;23.90;59.20;;;;;;5019752;28;20389;-71
2022/07/25 05:28:17;;;;;;;;;;;23.90;59.30;;;;;;5019217;28;19960;-72
2022/07/25 05:30:43;;;;;;;;;;;23.90;59.50;;;;;;5021072;28;19940;-70
2022/07/25 05:33:10;;;;;;;;;;;23.90;59.50;;;;;;5020468;28;19937;-73
2022/07/25 05:35:36;;;;;;;;;;;23.80;59.50;;;;;;5023177;28;19933;-71
2022/07/25 05:38:04;;;;;;;;;;;23.80;59.50;;;;;;5021863;28;19936;-71
2022/07/25 05:40:31;;;;;;;;;;;23.80;59.50;;;;;;5022515;28;20381;-70
2022/07/25 05:42:57;;;;;;;;;;;23.80;59.30;;;;;;5021033;28;19951;-71
2022/07/25 05:45:24;;;;;;;;;;;23.80;59.30;;;;;;5022204;28;21273;-71
2022/07/25 05:47:51;;;;;;;;;;;23.80;59.30;;;;;;5016827;28;19933;-70
2022/07/25 05:50:17;;;;;;;;;;;23.80;59.20;;;;;;5023590;28;19929;-72
2022/07/25 05:52:44;;;;;;;;;;;23.80;59.10;;;;;;5019525;28;19951;-71
2022/07/25 05:55:12;;;;;;;;;;;23.80;59.10;;;;;;5022377;28;19929;-71
2022/07/25 05:57:38;;;;;;;;;;;23.90;59.10;;;;;;5019871;28;19933;-70
2022/07/25 06:00:06;;;;;;;;;;;23.90;59.10;;;;;;5020472;28;20479;-72
2022/07/25 06:02:32;;;;;;;;;;;23.90;59.10;;;;;;5020892;28;19933;-70
2022/07/25 06:04:59;;;;;;;;;;;23.90;59.10;;;;;;5023100;28;19929;-70
2022/07/25 06:07:26;;;;;;;;;;;23.90;59.20;;;;;;5025534;28;19933;-70
2022/07/25 06:09:52;;;;;;;;;;;23.90;59.10;;;;;;5025001;28;19937;-71
2022/07/25 06:12:20;;;;;;;;;;;23.90;59.20;;;;;;5025667;28;19931;-70
2022/07/25 06:14:47;;;;;;;;;;;23.90;59.10;;;;;;5026413;28;19938;-71
2022/07/25 06:17:13;;;;;;;;;;;23.90;58.90;;;;;;5021519;28;19932;-70
2022/07/25 06:19:40;;;;;;;;;;;24.00;58.90;;;;;;5023368;28;19936;-73
2022/07/25 06:22:08;;;;;;;;;;;24.00;58.80;;;;;;5021101;28;19940;-71
2022/07/25 06:24:34;;;;;;;;;;;24.00;58.80;;;;;;5020799;28;19933;-70
2022/07/25 06:27:01;;;;;;;;;;;24.00;58.70;;;;;;5020997;28;19932;-71
2022/07/25 06:29:29;;;;;;;;;;;24.00;58.70;;;;;;5023587;28;19925;-70
2022/07/25 06:31:55;;;;;;;;;;;24.00;58.70;;;;;;5019869;28;19929;-70
2022/07/25 06:34:22;;;;;;;;;;;24.00;58.70;;;;;;5025257;28;19933;-69
2022/07/25 06:36:48;;;;;;;;;;;24.00;58.70;;;;;;5020944;28;20542;-71
2022/07/25 06:39:15;;;;;;;;;;;24.10;59.00;;;;;;5020743;28;19929;-68
2022/07/25 06:41:41;;;;;;;;;;;24.00;59.00;;;;;;5018846;28;20352;-68
2022/07/25 06:44:08;;;;;;;;;;;24.10;58.90;;;;;;5020496;28;19951;-67
2022/07/25 06:46:36;;;;;;;;;;;24.10;58.90;;;;;;5018899;28;19936;-69
2022/07/25 06:49:03;;;;;;;;;;;24.10;58.90;;;;;;5019599;28;19933;-69
2022/07/25 06:51:29;;;;;;;;;;;24.10;58.70;;;;;;5021414;28;19933;-69
2022/07/25 06:53:56;;;;;;;;;;;24.10;58.70;;;;;;5016193;28;19929;-67
2022/07/25 06:56:22;;;;;;;;;;;24.20;58.90;;;;;;5018096;28;20023;-69
2022/07/25 06:58:49;;;;;;;;;;;24.20;58.90;;;;;;5016866;28;19934;-68
2022/07/25 07:01:16;;;;;;;;;;;24.20;58.70;;;;;;5021713;28;19929;-68
2022/07/25 07:03:43;;;;;;;;;;;24.20;58.60;;;;;;5022903;28;19940;-68
2022/07/25 07:06:10;;;;;;;;;;;24.30;58.60;;;;;;5018033;28;19940;-68
2022/07/25 07:08:37;;;;;;;;;;;24.30;58.40;;;;;;5029193;28;19987;-68
2022/07/25 07:11:04;;;;;;;;;;;24.30;58.20;;;;;;5025912;28;20745;-69
2022/07/25 07:13:30;;;;;;;;;;;24.30;58.10;;;;;;5033899;28;20507;-68
2022/07/25 07:15:57;;;;;;;;;;;24.30;57.90;;;;;;5019661;28;19929;-68
2022/07/25 07:18:23;;;;;;;;;;;24.40;57.90;;;;;;5016890;28;19940;-69
2022/07/25 07:20:51;;;;;;;;;;;24.40;57.80;;;;;;5022551;28;20619;-68
2022/07/25 07:23:18;;;;;;;;;;;24.40;57.70;;;;;;5028175;28;19929;-68
2022/07/25 07:25:45;;;;;;;;;;;24.50;57.70;;;;;;5020534;28;19936;-68
2022/07/25 07:28:12;;;;;;;;;;;24.50;57.60;;;;;;5023847;28;19956;-68
2022/07/25 07:30:39;;;;;;;;;;;24.50;57.50;;;;;;5027928;28;19929;-68
2022/07/25 07:33:05;;;;;;;;;;;24.50;57.40;;;;;;5024966;28;19932;-68
2022/07/25 07:35:32;;;;;;;;;;;24.60;57.40;;;;;;5014680;28;19936;-68
2022/07/25 07:38:00;;;;;;;;;;;24.70;57.40;;;;;;5015325;28;19941;-68
2022/07/25 07:40:26;;;;;;;;;;;24.70;57.30;;;;;;5027561;28;20553;-69
2022/07/25 07:42:53;;;;;;;;;;;24.70;57.30;;;;;;5023243;28;20597;-68
2022/07/25 07:45:20;;;;;;;;;;;24.70;57.20;;;;;;5023605;28;19941;-68
2022/07/25 07:47:47;;;;;;;;;;;24.70;57.00;;;;;;5023575;28;20106;-68
2022/07/25 07:50:15;;;;;;;;;;;24.80;57.10;;;;;;5029608;28;19976;-68
2022/07/25 07:52:42;;;;;;;;;;;24.80;56.90;;;;;;5019739;28;20530;-68
2022/07/25 07:57:55;;;;;;;;;;;24.90;56.80;;;;;;5027715;28;19936;-67
2022/07/25 08:00:22;;;;;;;;;;;24.90;56.70;;;;;;5013417;28;20491;-68
2022/07/25 08:02:49;;;;;;;;;;;25.00;56.70;;;;;;5021922;28;19929;-77
2022/07/25 08:05:20;;;;;;;;;;;25.00;56.40;;;;;;5023236;28;19936;-77
2022/07/25 08:07:46;;;;;;;;;;;25.00;56.40;;;;;;5025974;28;20040;-77
2022/07/25 08:10:14;;;;;;;;;;;25.00;56.40;;;;;;5023718;28;19933;-77
2022/07/25 08:12:41;;;;;;;;;;;25.10;56.40;;;;;;5021758;28;19936;-77
2022/07/25 08:15:09;;;;;;;;;;;25.10;56.20;;;;;;5021810;28;20019;-77
2022/07/25 08:17:36;;;;;;;;;;;25.20;56.30;;;;;;5018113;28;20043;-76
2022/07/25 08:20:06;;;;;;;;;;;25.20;56.20;;;;;;5017278;28;19992;-77
2022/07/25 08:22:36;;;;;;;;;;;25.30;56.20;;;;;;5017095;28;19937;-75
2022/07/25 08:25:03;;;;;;;;;;;25.30;56.20;;;;;;5017164;28;20028;-76
2022/07/25 08:27:31;;;;;;;;;;;25.30;56.10;;;;;;5021565;28;20308;-78
2022/07/25 08:29:59;;;;;;;;;;;25.40;56.10;;;;;;5017963;28;19929;-76
2022/07/25 08:32:26;;;;;;;;;;;25.40;56.10;;;;;;5020576;28;19929;-77
2022/07/25 08:34:53;;;;;;;;;;;25.40;56.00;;;;;;5019961;28;19940;-76
2022/07/25 08:37:20;;;;;;;;;;;25.40;56.00;;;;;;5028299;28;19929;-76
2022/07/25 08:39:47;;;;;;;;;;;25.50;56.00;;;;;;5024447;28;20000;-77
2022/07/25 08:42:13;;;;;;;;;;;25.60;56.00;;;;;;5018865;28;19943;-77
2022/07/25 08:44:43;;;;;;;;;;;25.60;55.90;;;;;;5020696;28;19933;-78
2022/07/25 08:47:14;;;;;;;;;;;25.60;55.80;;;;;;5022620;28;19925;-76
2022/07/25 08:49:41;;;;;;;;;;;25.70;55.70;;;;;;5022495;28;19968;-77
2022/07/25 08:52:08;;;;;;;;;;;25.70;55.40;;;;;;5023148;28;20304;-77
2022/07/25 08:54:35;;;;;;;;;;;25.80;55.30;;;;;;5021887;28;20030;-77
2022/07/25 08:57:02;;;;;;;;;;;25.80;55.30;;;;;;5022708;28;19929;-77
2022/07/25 08:59:30;;;;;;;;;;;25.80;55.20;;;;;;5024792;28;19940;-77
2022/07/25 09:02:01;;;;;;;;;;;25.90;55.20;;;;;;5020306;28;19930;-76
2022/07/25 09:04:28;;;;;;;;;;;25.90;55.10;;;;;;5024429;28;20333;-77
2022/07/25 09:06:54;;;;;;;;;;;25.90;54.90;;;;;;5015733;28;20412;-74
2022/07/25 09:09:29;;;;;;;;;;;26.00;54.60;;;;;;5023992;28;19936;-76
2022/07/25 09:11:56;;;;;;;;;;;26.10;54.70;;;;;;5021060;28;19929;-76
2022/07/25 09:14:22;;;;;;;;;;;26.10;54.70;;;;;;5023222;28;19929;-76
2022/07/25 09:16:49;;;;;;;;;;;26.20;54.70;;;;;;5022197;28;19929;-77
2022/07/25 09:19:17;;;;;;;;;;;26.20;54.50;;;;;;5029061;28;19941;-76
2022/07/25 09:21:45;;;;;;;;;;;26.30;54.50;;;;;;5017040;28;20397;-77
2022/07/25 09:24:14;;;;;;;;;;;26.30;54.30;;;;;;5019879;28;19937;-76
2022/07/25 09:26:48;;;;;;;;;;;26.40;54.20;;;;;;5012878;28;19929;-76
2022/07/25 09:29:18;;;;;;;;;;;26.40;54.00;;;;;;5016874;28;19929;-77
2022/07/25 09:31:45;;;;;;;;;;;26.50;53.80;;;;;;5027531;28;19925;-76
2022/07/25 09:34:12;;;;;;;;;;;26.50;53.80;;;;;;5026661;28;19931;-76
2022/07/25 09:36:50;;;;;;;;;;;26.60;53.60;;;;;;5027167;28;19941;-77
2022/07/25 09:39:16;;;;;;;;;;;26.70;53.60;;;;;;5023549;28;19948;-76
2022/07/25 09:41:43;;;;;;;;;;;26.70;53.50;;;;;;5019017;28;19929;-77
2022/07/25 09:44:15;;;;;;;;;;;26.80;53.40;;;;;;5024570;28;19926;-75
2022/07/25 09:46:42;;;;;;;;;;;26.80;53.20;;;;;;5021361;28;19940;-78
2022/07/25 09:49:08;;;;;;;;;;;26.90;53.10;;;;;;5018912;28;20313;-76
2022/07/25 09:51:35;;;;;;;;;;;27.00;53.00;;;;;;5016583;28;20428;-76
2022/07/25 09:54:03;;;;;;;;;;;27.10;52.90;;;;;;5022679;28;20410;-77
2022/07/25 09:56:30;;;;;;;;;;;27.10;52.70;;;;;;5018242;28;19936;-77
2022/07/25 09:58:57;;;;;;;;;;;27.20;52.60;;;;;;5025418;28;19929;-77
2022/07/25 10:01:27;;;;;;;;;;;27.30;52.50;;;;;;5022435;28;19936;-76
2022/07/25 10:04:02;;;;;;;;;;;27.40;52.50;;;;;;5022371;28;19956;-77
2022/07/25 10:06:34;;;;;;;;;;;27.50;52.20;;;;;;5024887;28;19936;-77
2022/07/25 10:09:01;;;;;;;;;;;27.50;52.10;;;;;;5023155;28;19936;-78
2022/07/25 10:11:30;;;;;;;;;;;27.60;52.00;;;;;;5027310;28;19929;-77
2022/07/25 10:13:56;;;;;;;;;;;27.70;51.90;;;;;;5021812;28;20196;-76
2022/07/25 10:16:24;;;;;;;;;;;27.80;51.50;;;;;;5020814;28;19972;-76
2022/07/25 10:18:51;;;;;;;;;;;27.90;51.30;;;;;;5026156;28;19936;-77
2022/07/25 10:21:18;;;;;;;;;;;27.90;51.10;;;;;;5020036;28;19936;-76
2022/07/25 10:23:45;;;;;;;;;;;28.00;50.80;;;;;;5019337;28;19939;-76
2022/07/25 10:26:12;;;;;;;;;;;28.10;50.50;;;;;;5020028;28;19929;-76
2022/07/25 10:28:42;;;;;;;;;;;28.20;50.40;;;;;;5028256;28;20024;-77
2022/07/25 10:31:20;;;;;;;;;;;28.30;50.20;;;;;;5016454;28;19929;-77
2022/07/25 10:33:48;;;;;;;;;;;28.30;49.90;;;;;;5018425;28;20416;-77
2022/07/25 10:36:14;;;;;;;;;;;28.50;49.40;;;;;;5025097;28;19964;-76
2022/07/25 10:38:43;;;;;;;;;;;28.50;49.20;;;;;;5025150;28;20411;-76
2022/07/25 10:41:11;;;;;;;;;;;28.60;49.00;;;;;;5026489;28;20415;-77
2022/07/25 10:43:38;;;;;;;;;;;28.70;48.70;;;;;;5019285;28;19926;-77
2022/07/25 10:46:12;;;;;;;;;;;28.70;48.60;;;;;;5016859;28;20551;-77
2022/07/25 10:48:39;;;;;;;;;;;28.80;48.20;;;;;;5031837;28;19972;-77
2022/07/25 10:51:07;;;;;;;;;;;28.90;47.90;;;;;;5025709;28;20382;-76
2022/07/25 10:53:34;;;;;;;;;;;28.90;47.90;;;;;;5027340;28;20128;-76
2022/07/25 10:56:05;;;;;;;;;;;29.00;47.80;;;;;;5026200;28;19929;-77
2022/07/25 10:58:45;;;;;;;;;;;29.00;47.60;;;;;;5025722;28;21300;-77
2022/07/25 11:01:14;;;;;;;;;;;29.10;47.60;;;;;;5021796;28;20034;-77
2022/07/25 11:03:41;;;;;;;;;;;29.10;47.40;;;;;;5027577;28;20454;-77
2022/07/25 11:06:07;;;;;;;;;;;29.20;47.30;;;;;;5024817;28;19988;-77
2022/07/25 11:08:34;;;;;;;;;;;29.20;47.10;;;;;;5018176;28;19933;-76
2022/07/25 11:11:01;;;;;;;;;;;29.30;47.20;;;;;;5027287;28;19951;-77
2022/07/25 11:13:27;;;;;;;;;;;29.30;47.10;;;;;;5021986;28;20022;-77
2022/07/25 11:15:56;;;;;;;;;;;29.40;47.30;;;;;;5023662;28;19933;-77
2022/07/25 11:18:32;;;;;;;;;;;29.40;47.00;;;;;;5029393;28;19940;-77
2022/07/25 11:20:59;;;;;;;;;;;29.50;46.70;;;;;;5027921;28;19929;-75
2022/07/25 11:23:25;;;;;;;;;;;29.50;46.60;;;;;;5021656;28;19964;-77
2022/07/25 11:25:52;;;;;;;;;;;29.50;46.40;;;;;;5019529;28;19925;-77
2022/07/25 11:28:18;;;;;;;;;;;29.50;46.50;;;;;;5026559;28;19936;-76
2022/07/25 11:30:45;;;;;;;;;;;29.60;47.10;;;;;;5017709;28;19929;-76
2022/07/25 11:33:14;;;;;;;;;;;29.60;46.40;;;;;;5024016;28;19984;-76
2022/07/25 11:35:42;;;;;;;;;;;29.60;46.10;;;;;;5015450;28;19975;-76
2022/07/25 11:38:13;;;;;;;;;;;29.70;46.20;;;;;;5028581;28;19940;-76
2022/07/25 11:40:42;;;;;;;;;;;29.70;45.90;;;;;;5022480;28;19929;-77
2022/07/25 11:43:19;;;;;;;;;;;29.80;45.80;;;;;;5021348;28;19929;-76
2022/07/25 11:45:55;;;;;;;;;;;29.80;45.50;;;;;;5017011;28;19937;-77
2022/07/25 11:48:29;;;;;;;;;;;29.90;45.70;;;;;;5029726;28;19925;-76
2022/07/25 11:50:57;;;;;;;;;;;29.90;45.90;;;;;;5025169;28;19930;-76
2022/07/25 11:53:24;;;;;;;;;;;30.00;45.60;;;;;;5028589;28;20416;-76
2022/07/25 11:55:51;;;;;;;;;;;30.00;45.60;;;;;;5026771;28;20007;-75
2022/07/25 11:58:18;;;;;;;;;;;30.10;45.70;;;;;;5029340;28;19929;-76
2022/07/25 12:00:45;;;;;;;;;;;30.10;45.30;;;;;;5017964;28;19933;-75
2022/07/25 12:03:13;;;;;;;;;;;30.20;45.40;;;;;;5025124;28;19936;-76
2022/07/25 12:05:40;;;;;;;;;;;30.20;45.20;;;;;;5016749;28;20501;-76
2022/07/25 12:08:11;;;;;;;;;;;30.20;45.20;;;;;;5034875;28;19936;-76
2022/07/25 12:10:39;;;;;;;;;;;30.30;45.00;;;;;;5031086;28;19940;-76
2022/07/25 12:13:06;;;;;;;;;;;30.30;45.00;;;;;;5025649;28;20248;-75
2022/07/25 12:15:37;;;;;;;;;;;30.40;44.90;;;;;;5025285;28;20012;-75
2022/07/25 12:18:03;;;;;;;;;;;30.40;44.90;;;;;;5030990;28;19935;-76
2022/07/25 12:20:31;;;;;;;;;;;30.50;44.90;;;;;;5028775;28;19938;-77
2022/07/25 12:22:58;;;;;;;;;;;30.50;44.90;;;;;;5024430;28;19929;-76
2022/07/25 12:25:28;;;;;;;;;;;30.60;44.70;;;;;;5021526;28;19933;-76
2022/07/25 12:27:55;;;;;;;;;;;30.70;44.80;;;;;;5010756;28;19933;-77
2022/07/25 12:30:21;;;;;;;;;;;30.80;44.50;;;;;;5017087;28;19936;-76
2022/07/25 12:32:48;;;;;;;;;;;30.80;45.20;;;;;;5019797;28;19929;-77
2022/07/25 12:35:15;;;;;;;;;;;30.90;44.80;;;;;;5021690;28;19936;-75
2022/07/25 12:37:41;;;;;;;;;;;30.90;45.00;;;;;;5017911;28;20028;-77
2022/07/25 12:40:09;;;;;;;;;;;31.00;44.40;;;;;;5018067;28;19929;-77
2022/07/25 12:42:36;;;;;;;;;;;31.00;44.40;;;;;;5015672;28;19936;-77
2022/07/25 12:45:04;;;;;;;;;;;31.10;44.30;;;;;;5016417;28;19929;-77
2022/07/25 12:47:31;;;;;;;;;;;31.10;44.30;;;;;;5017651;28;19975;-78
2022/07/25 12:49:57;;;;;;;;;;;31.20;44.30;;;;;;5017972;28;19935;-78
2022/07/25 12:52:24;;;;;;;;;;;31.20;44.10;;;;;;5015933;28;19929;-77
2022/07/25 12:54:50;;;;;;;;;;;31.30;44.20;;;;;;5019868;28;20285;-77
2022/07/25 12:57:17;;;;;;;;;;;31.30;44.20;;;;;;5018158;28;19947;-76
2022/07/25 12:59:45;;;;;;;;;;;31.30;44.50;;;;;;5016012;28;19939;-77
2022/07/25 13:02:11;;;;;;;;;;;31.40;44.30;;;;;;5021823;28;19975;-78
2022/07/25 13:04:38;;;;;;;;;;;31.40;44.30;;;;;;5017936;28;19933;-77
2022/07/25 13:07:05;;;;;;;;;;;31.40;44.30;;;;;;5015010;28;19933;-77
2022/07/25 13:09:32;;;;;;;;;;;31.50;44.20;;;;;;5016669;28;20128;-77
2022/07/25 13:11:58;;;;;;;;;;;31.60;44.20;;;;;;5018896;28;20012;-76
2022/07/25 13:14:25;;;;;;;;;;;31.60;44.10;;;;;;5019277;28;19956;-77
2022/07/25 13:16:54;;;;;;;;;;;31.60;44.50;;;;;;5018783;28;19933;-77
2022/07/25 13:19:20;;;;;;;;;;;31.70;44.30;;;;;;5022164;28;20008;-76
2022/07/25 13:21:47;;;;;;;;;;;31.70;44.10;;;;;;5017853;28;19936;-77
2022/07/25 13:24:13;;;;;;;;;;;31.80;44.20;;;;;;5018447;28;19925;-75
2022/07/25 13:26:40;;;;;;;;;;;31.80;43.70;;;;;;5018304;28;19929;-77
2022/07/25 13:29:07;;;;;;;;;;;31.80;43.60;;;;;;5013833;28;20395;-78
2022/07/25 13:31:34;;;;;;;;;;;31.80;43.70;;;;;;5021733;28;19933;-76
2022/07/25 13:34:02;;;;;;;;;;;31.80;43.70;;;;;;5021826;28;19990;-76
2022/07/25 13:36:29;;;;;;;;;;;31.80;43.70;;;;;;5025580;28;20393;-77
2022/07/25 13:38:55;;;;;;;;;;;31.80;43.70;;;;;;5020233;28;20313;-76
2022/07/25 13:41:22;;;;;;;;;;;31.80;43.60;;;;;;5030583;28;20508;-77
2022/07/25 13:43:48;;;;;;;;;;;31.80;43.90;;;;;;5026740;28;19929;-78
2022/07/25 13:46:15;;;;;;;;;;;31.80;43.70;;;;;;5024345;28;19929;-77
2022/07/25 13:48:41;;;;;;;;;;;31.80;43.70;;;;;;5026740;28;19930;-77
2022/07/25 13:51:09;;;;;;;;;;;31.80;43.60;;;;;;5022613;28;19929;-76
2022/07/25 13:53:36;;;;;;;;;;;31.90;43.70;;;;;;5023572;28;19932;-77
2022/07/25 13:56:03;;;;;;;;;;;31.90;43.50;;;;;;5024861;28;19936;-76
2022/07/25 13:58:29;;;;;;;;;;;31.90;43.60;;;;;;5026443;28;19936;-78
2022/07/25 14:00:56;;;;;;;;;;;31.90;43.60;;;;;;5020710;28;19932;-75
2022/07/25 14:03:22;;;;;;;;;;;31.90;44.00;;;;;;5028147;28;19929;-75
2022/07/25 14:05:49;;;;;;;;;;;32.00;48.10;;;;;;5024834;28;19948;-75
2022/07/25 14:08:17;;;;;;;;;;;32.40;48.80;;;;;;5017276;28;19933;-76
2022/07/25 14:10:44;;;;;;;;;;;32.00;44.00;;;;;;5016675;28;19933;-78
2022/07/25 14:13:11;;;;;;;;;;;32.00;43.20;;;;;;5014483;28;19929;-76
2022/07/25 14:15:38;;;;;;;;;;;32.00;43.80;;;;;;5020064;28;20468;-77
2022/07/25 14:18:05;;;;;;;;;;;32.10;43.80;;;;;;5015614;28;19929;-77